Flight Number: EUR2034 Duration: 0:50
Departure: Vienna Schwechat (LOWW) at 07:00 Distance: 192 Nm
Arrival: Munich Int'l (EDDM) at 07:50 Equipment: B737

Weather Information
Wien / Schwechat-Flughafen, Austria (LOWW) 48-07N 016-34E 190M Aug 19, 2018 - 04:50 AM EDT / 2018.08.19 0850 UTC
Wind: Variable at 3 MPH (3 KT):0
Visibility: greater than 7 mile(s):0 Temperature: 80 F (27 C) Dew Point: 57 F (14 C) Relative Humidity: 44% Pressure (altimeter): 30.15 in. Hg (1021 hPa)
ob: LOWW 190850Z VRB03KT CAVOK 27/14 Q1021 NOSIG cycle: 9
Sunrise: 03:58 Sunset: 17:56 (UTC)

Munchen, Germany (EDDM) 48-21N 011-47E Aug 19, 2018 - 04:50 AM EDT / 2018.08.19 0850 UTC
Wind: Variable at 3 MPH (3 KT):0
Visibility: greater than 7 mile(s):0 Temperature: 75 F (24 C) Dew Point: 59 F (15 C) Relative Humidity: 57% Pressure (altimeter): 30.18 in. Hg (1022 hPa)
ob: EDDM 190850Z VRB03KT CAVOK 24/15 Q1022 NOSIG cycle: 9
Sunrise: 04:16 Sunset: 18:15 (UTC)

TAF:2018/08/19 06:27 TAF EDDM 190500Z 1906/2012 VRB03KT CAVOK TEMPO 1906/1909 26005KT TEMPO 1911/1916 02005KT BECMG 1920/1922 25005KT

Previous Pireps for this route
Date Aircraft Flight time Fuel used Landing rate On time
2013-04-01B737150000No
2013-07-06B73700.575700-422No
2013-07-06B73701.008599-817No
2013-07-21B7370.5000No
2013-08-15B73701.016744-288No
2013-10-20B7371.0092540No
2014-03-31B73701.199380-574No
2014-04-03B73700.588004-338Charter
2014-06-28B73700.52-12-337No
2014-06-28B7370.5913800No
2015-01-13B73701.075609-153Yes
2015-03-12B73700.494943-86Yes
2015-03-28B73700.494149-273Yes
2015-04-04B73700.484345-256Yes
2015-04-05B73701.088560-479Yes
2015-04-06B73700.503379-138Yes
2015-06-23B7370.4649900Yes
2015-07-12B7370.5557050Yes
(pireps marked green are flown by you)

Route map